Bowersville, Ohio
Current Conditions -  °F | °C
As of 6:54 AM on Friday 28 Nov 2014 (Local Time) from KILN Reporting Station
Overcast Overcast  
Wind Chill: 21°   Ceiling: 3700
Heat Index: 21°   Visibility: 10mi
Dew Point: 16°   Wind: 3mph
Humidity: 81%   Direction: 270°W
Pressure: 30.38"   Gusts: NA
Location:  39.58°N, 83.72°W
Report Text: KILN 281154Z AUTO 27003KT 10SM OVC037 M06/M09 A3038 RMK AO2 SLP318 60000 70001 T10611089 11033 21067 53006
Loading
Personal Weather Stations






























Interactive Weather Map New forecast layout! Learn more

10-Day Weather Forecast

Advertisements
Track Severe Weather on mobile